Time;durP1;ratioP1;P1;durP2;ratioP2;P2;SDS_P1;SDS_P2;PMS_P1;PMS_P2;Temp;Humidity;BMP_temperature;BMP_pressure;BME280_temperature;BME280_humidity;BME280_pressure;Samples;Min_cycle;Max_cycle;Signal;HPM_P1;HPM_P2
2023/08/13 00:01:47;;;;;;;;;2.25;2.00;;;;;22.50;49.55;101348.41;5021047;28;45429;-70
2023/08/13 00:04:13;;;;;;;;;2.00;2.00;;;;;22.50;49.40;101337.56;5019147;28;66070;-70
2023/08/13 00:06:38;;;;;;;;;3.00;3.00;;;;;22.54;49.85;101355.06;5054118;28;45908;-69
2023/08/13 00:09:04;;;;;;;;;2.00;2.00;;;;;22.51;50.08;101349.22;5038498;28;56360;-70
2023/08/13 00:11:29;;;;;;;;;1.00;1.00;;;;;22.48;49.91;101350.47;5038922;28;45402;-70
2023/08/13 00:13:55;;;;;;;;;1.75;1.50;;;;;22.45;50.31;101350.91;5017151;28;47100;-69
2023/08/13 00:16:20;;;;;;;;;3.00;1.00;;;;;22.48;50.28;101355.06;5018286;28;45368;-69
2023/08/13 00:18:45;;;;;;;;;3.50;2.50;;;;;22.46;50.26;101347.97;5017028;28;58186;-71
2023/08/13 00:21:11;;;;;;;;;2.00;1.75;;;;;22.50;50.67;101353.81;5017494;28;45505;-70
2023/08/13 00:23:36;;;;;;;;;3.00;3.00;;;;;22.34;50.17;101321.69;5018546;28;46516;-70
2023/08/13 00:26:02;;;;;;;;;6.67;5.67;;;;;22.50;49.96;101337.56;5018411;28;45237;-69
2023/08/13 00:28:28;;;;;;;;;3.75;2.50;;;;;22.41;50.40;101333.38;5018411;28;45357;-70
2023/08/13 00:30:54;;;;;;;;;3.50;1.00;;;;;22.46;50.51;101337.13;5018453;28;45529;-69
2023/08/13 00:33:20;;;;;;;;;1.75;1.75;;;;;22.47;50.79;101340.69;5018331;28;46265;-70
2023/08/13 00:35:45;;;;;;;;;4.25;2.00;;;;;22.44;50.75;101332.97;5018355;28;45404;-70
2023/08/13 00:38:10;;;;;;;;;3.00;2.00;;;;;22.45;50.77;101329.22;5018111;28;45313;-69
2023/08/13 00:40:36;;;;;;;;;2.00;2.00;;;;;22.40;50.62;101328.97;5017946;28;52622;-70
2023/08/13 00:43:02;;;;;;;;;2.67;2.00;;;;;22.37;50.58;101324.00;5016670;28;47867;-70
2023/08/13 00:45:29;;;;;;;;;2.75;2.00;;;;;22.32;50.98;101324.63;5017859;28;45405;-70
2023/08/13 00:47:56;;;;;;;;;4.00;4.00;;;;;22.32;50.84;101334.63;5016854;28;45315;-70
2023/08/13 00:50:22;;;;;;;;;2.00;2.00;;;;;22.30;51.16;101325.88;5017019;28;45547;-69
2023/08/13 00:52:47;;;;;;;;;5.00;2.33;;;;;22.32;51.37;101319.19;5017672;28;46718;-70
2023/08/13 00:55:13;;;;;;;;;4.00;2.00;;;;;22.27;51.03;101316.28;5017734;28;45424;-70
2023/08/13 00:57:39;;;;;;;;;7.33;5.67;;;;;22.24;51.29;101315.88;5017946;28;45519;-68
2023/08/13 01:00:06;;;;;;;;;5.00;4.00;;;;;22.31;51.37;101324.81;5018137;28;45389;-69
2023/08/13 01:02:32;;;;;;;;;3.75;2.75;;;;;22.27;51.32;101323.56;5017662;28;45549;-69
2023/08/13 01:04:58;;;;;;;;;3.50;2.25;;;;;22.24;51.60;101321.28;5017761;28;45475;-69
2023/08/13 01:07:52;;;;;;;;;2.00;2.00;;;;;22.07;51.40;101302.72;5017658;28;45249;-70
2023/08/13 01:10:33;;;;;;;;;2.00;2.00;;;;;22.24;51.42;101315.88;5018194;28;45327;-69
2023/08/13 01:13:01;;;;;;;;;3.00;2.67;;;;;22.23;51.51;101319.63;5016237;28;48105;-69
2023/08/13 01:15:37;;;;;;;;;1.75;1.75;;;;;22.11;51.88;101305.84;5015908;28;45335;-70
2023/08/13 01:18:03;;;;;;;;;2.33;2.00;;;;;22.15;51.68;101307.94;5017830;28;45393;-69
2023/08/13 01:20:30;;;;;;;;;3.00;2.25;;;;;22.20;51.76;101323.53;5017709;28;45393;-70
2023/08/13 01:22:55;;;;;;;;;2.50;2.00;;;;;21.80;52.05;101260.34;5017572;28;45681;-70
2023/08/13 01:25:25;;;;;;;;;2.00;2.00;;;;;22.13;51.90;101320.84;5017635;28;45300;-70
2023/08/13 01:28:15;;;;;;;;;1.67;1.67;;;;;22.20;51.79;101330.84;5016242;28;45495;-69
2023/08/13 01:30:45;;;;;;;;;3.25;2.00;;;;;22.17;52.03;101326.66;5017422;28;45330;-69
2023/08/13 01:33:18;;;;;;;;;4.67;1.00;;;;;22.20;51.75;101320.00;5015945;28;46611;-69
2023/08/13 01:35:45;;;;;;;;;3.00;3.00;;;;;22.09;52.34;101297.94;5015945;28;45408;-69
2023/08/13 01:38:11;;;;;;;;;5.00;3.00;;;;;22.21;51.92;101321.66;5016174;28;45348;-69
2023/08/13 01:40:36;;;;;;;;;2.67;1.33;;;;;21.75;52.46;101252.00;5017670;28;45377;-70
2023/08/13 01:43:01;;;;;;;;;4.00;4.00;;;;;22.13;52.38;101310.00;5016615;28;61069;-70
2023/08/13 01:45:27;;;;;;;;;6.33;5.33;;;;;21.74;52.64;101250.34;5015590;28;45431;-70
2023/08/13 01:47:52;;;;;;;;;1.00;1.00;;;;;22.07;52.44;101302.72;5017399;28;45417;-70
2023/08/13 01:50:18;;;;;;;;;2.00;0.00;;;;;22.06;52.63;101308.34;5017482;28;45272;-70
2023/08/13 01:52:43;;;;;;;;;1.75;1.00;;;;;22.02;52.49;101293.50;5017289;28;46169;-70
2023/08/13 01:55:09;;;;;;;;;2.00;2.00;;;;;22.07;52.46;101313.56;5017252;28;45343;-69
2023/08/13 01:57:35;;;;;;;;;2.33;2.33;;;;;21.92;52.53;101296.59;5017430;28;45422;-70
2023/08/13 02:00:00;;;;;;;;;3.50;1.75;;;;;21.98;52.92;101312.03;5016968;28;45447;-70
2023/08/13 02:02:25;;;;;;;;;1.67;1.67;;;;;21.86;52.80;101283.91;5017129;28;46599;-70
2023/08/13 02:04:51;;;;;;;;;2.00;2.00;;;;;21.98;52.95;101309.31;5016959;28;45533;-69
2023/08/13 02:07:16;;;;;;;;;3.00;2.00;;;;;21.93;53.03;101314.53;5017113;28;45288;-70
2023/08/13 02:09:42;;;;;;;;;2.00;2.00;;;;;21.55;52.99;101251.97;5015890;28;45591;-69
2023/08/13 02:12:07;;;;;;;;;1.33;1.33;;;;;21.79;53.02;101291.16;5015553;28;47622;-69
2023/08/13 02:14:32;;;;;;;;;4.00;2.00;;;;;21.33;53.46;101224.22;5025003;28;45393;-70
2023/08/13 02:16:59;;;;;;;;;2.33;1.33;;;;;21.84;53.53;101304.94;5019913;28;45503;-69
2023/08/13 02:19:25;;;;;;;;;2.33;1.33;;;;;21.82;53.45;101313.25;5040690;28;45484;-69
2023/08/13 02:21:51;;;;;;;;;3.67;3.67;;;;;21.78;53.61;101311.13;5040254;28;46051;-68
2023/08/13 02:24:16;;;;;;;;;1.00;1.00;;;;;21.79;53.73;101329.03;5040055;28;45906;-71
2023/08/13 02:26:41;;;;;;;;;2.50;2.50;;;;;21.56;53.75;101295.03;5040525;28;45224;-69
2023/08/13 02:29:07;;;;;;;;;2.75;1.75;;;;;21.63;53.70;101297.78;5040709;28;45221;-69
2023/08/13 02:31:32;;;;;;;;;3.75;2.00;;;;;21.70;53.98;101309.47;5021889;28;51485;-69
2023/08/13 02:33:57;;;;;;;;;3.33;2.00;;;;;21.67;54.15;101309.88;5040265;28;45598;-70
2023/08/13 02:36:23;;;;;;;;;4.00;3.00;;;;;21.72;54.27;101310.09;5040330;28;45447;-70
2023/08/13 02:38:48;;;;;;;;;4.00;2.00;;;;;21.65;54.33;101292.19;5022470;28;45582;-70
2023/08/13 02:41:13;;;;;;;;;3.00;2.33;;;;;20.98;54.31;101201.78;5039799;28;48397;-69
2023/08/13 02:43:54;;;;;;;;;3.00;2.00;;;;;21.63;54.69;101308.63;5021944;28;45381;-70
2023/08/13 02:46:21;;;;;;;;;4.00;2.33;;;;;21.48;54.76;101287.13;5039692;28;45497;-68
2023/08/13 02:48:47;;;;;;;;;5.33;3.67;;;;;21.52;54.63;101301.91;5040120;28;45432;-70
2023/08/13 02:51:13;;;;;;;;;3.33;3.00;;;;;21.38;54.61;101277.69;5021876;28;47348;-70
2023/08/13 02:53:38;;;;;;;;;3.33;2.67;;;;;21.52;54.56;101291.09;5021839;28;45310;-68
2023/08/13 02:56:04;;;;;;;;;6.00;2.00;;;;;21.18;54.83;101239.72;5039546;28;45284;-71
2023/08/13 02:58:29;;;;;;;;;4.00;4.00;;;;;21.31;55.37;101269.56;5039944;28;45434;-69
2023/08/13 03:00:54;;;;;;;;;4.00;3.00;;;;;21.48;55.14;101283.56;5039381;28;45399;-70
2023/08/13 03:03:20;;;;;;;;;3.67;2.00;;;;;21.52;55.08;101296.50;5039649;28;45323;-70
2023/08/13 03:05:45;;;;;;;;;2.00;2.00;;;;;21.49;55.19;101285.25;5039206;28;55315;-70
2023/08/13 03:08:10;;;;;;;;;2.00;2.00;;;;;21.47;55.05;101282.75;5039824;28;45575;-69
2023/08/13 03:10:36;;;;;;;;;1.67;1.67;;;;;21.44;54.92;101283.16;5039445;28;46464;-70
2023/08/13 03:13:01;;;;;;;;;3.00;2.00;;;;;21.40;55.45;101276.47;5039533;28;45296;-70
2023/08/13 03:15:26;;;;;;;;;2.67;1.67;;;;;21.45;55.37;101279.41;5039171;28;45410;-69
2023/08/13 03:17:52;;;;;;;;;2.33;2.33;;;;;21.45;55.42;101278.56;5039462;28;45355;-70
2023/08/13 03:20:17;;;;;;;;;4.33;2.00;;;;;21.47;55.44;101288.16;5039280;28;46650;-70
2023/08/13 03:22:42;;;;;;;;;5.67;3.00;;;;;21.48;55.84;101289.81;5039458;28;45275;-70
2023/08/13 03:25:08;;;;;;;;;6.00;2.33;;;;;21.41;55.51;101277.28;5039492;28;45688;-69
2023/08/13 03:27:34;;;;;;;;;3.67;2.00;;;;;21.42;55.87;101290.59;5039642;28;45552;-70
2023/08/13 03:29:59;;;;;;;;;1.67;1.67;;;;;21.39;55.94;101268.53;5038238;28;46099;-70
2023/08/13 03:32:24;;;;;;;;;3.00;3.00;;;;;21.35;55.73;101281.66;5039421;28;45273;-69
2023/08/13 03:34:50;;;;;;;;;2.33;2.00;;;;;21.35;56.03;101295.16;5039506;28;45580;-71
2023/08/13 03:37:15;;;;;;;;;3.00;1.00;;;;;21.24;56.23;101280.38;5039448;28;45617;-69
2023/08/13 03:39:40;;;;;;;;;2.00;2.00;;;;;21.21;56.20;101272.59;5039100;28;45947;-70
2023/08/13 03:42:05;;;;;;;;;3.00;3.00;;;;;21.18;56.44;101283.81;5038941;28;50956;-70
2023/08/13 03:44:31;;;;;;;;;1.50;1.50;;;;;21.20;56.89;101286.31;5038740;28;45324;-69
2023/08/13 03:46:56;;;;;;;;;2.00;2.00;;;;;21.14;56.65;101276.31;5021235;28;45432;-70
2023/08/13 03:49:21;;;;;;;;;4.00;2.00;;;;;21.19;56.77;101284.66;5038874;28;45259;-69
2023/08/13 03:51:47;;;;;;;;;5.00;2.67;;;;;21.23;56.63;101294.06;5039164;28;45456;-70
2023/08/13 03:54:12;;;;;;;;;2.00;1.00;;;;;21.12;56.74;101275.69;5039212;28;45445;-69
2023/08/13 03:56:38;;;;;;;;;2.33;2.33;;;;;21.06;56.88;101257.56;5021228;28;45521;-69
2023/08/13 03:59:03;;;;;;;;;3.33;2.67;;;;;20.73;56.70;101203.31;5038895;28;45423;-69
2023/08/13 04:01:29;;;;;;;;;4.00;2.00;;;;;21.17;57.11;101286.72;5038594;28;45332;-70
2023/08/13 04:03:58;;;;;;;;;3.00;2.00;;;;;21.11;57.48;101290.22;5021101;28;45311;-70
2023/08/13 04:06:23;;;;;;;;;3.33;2.33;;;;;21.06;57.69;101287.31;5021233;28;45236;-71
2023/08/13 04:08:48;;;;;;;;;1.33;1.33;;;;;21.03;57.57;101290.41;5020621;28;48222;-70
2023/08/13 04:11:14;;;;;;;;;4.67;3.00;;;;;21.05;57.76;101282.94;5038166;28;58988;-69
2023/08/13 04:13:39;;;;;;;;;3.33;3.33;;;;;20.95;57.69;101281.41;5020672;28;45612;-70
2023/08/13 04:16:04;;;;;;;;;3.33;2.00;;;;;21.00;58.09;101293.47;5038833;28;45395;-71
2023/08/13 04:18:29;;;;;;;;;3.00;2.00;;;;;20.64;57.98;101226.97;5020402;28;48925;-71
2023/08/13 04:20:55;;;;;;;;;2.00;2.00;;;;;21.06;57.47;101293.53;5038228;28;56166;-70
2023/08/13 04:23:20;;;;;;;;;6.67;4.33;;;;;20.65;58.09;101234.03;5038845;28;45435;-70
2023/08/13 04:25:46;;;;;;;;;4.00;3.00;;;;;20.96;58.15;101293.06;5038794;28;45200;-69
2023/08/13 04:28:11;;;;;;;;;4.67;3.67;;;;;20.92;58.28;101294.50;5038496;28;45555;-69
2023/08/13 04:30:36;;;;;;;;;3.00;2.00;;;;;20.87;58.40;101286.97;5020209;28;45415;-70
2023/08/13 04:33:02;;;;;;;;;2.67;2.67;;;;;20.90;58.51;101285.75;5038751;28;45594;-69
2023/08/13 04:35:28;;;;;;;;;5.33;3.00;;;;;20.94;58.43;101301.38;5038681;28;45523;-70
2023/08/13 04:37:53;;;;;;;;;4.00;2.00;;;;;20.90;58.75;101291.16;5038023;28;48393;-69
2023/08/13 04:40:19;;;;;;;;;4.00;4.00;;;;;20.84;58.59;101291.97;5037115;28;45526;-69
2023/08/13 04:42:44;;;;;;;;;7.00;7.00;;;;;20.80;58.70;101280.69;5038371;28;45521;-71
2023/08/13 04:45:12;;;;;;;;;3.00;3.00;;;;;20.92;58.74;101299.91;5019964;28;45333;-68
2023/08/13 04:47:37;;;;;;;;;5.00;3.00;;;;;20.89;58.83;101301.13;5038002;28;46386;-70
2023/08/13 04:50:03;;;;;;;;;7.67;4.67;;;;;20.85;59.12;101291.75;5038014;28;45584;-71
2023/08/13 04:52:29;;;;;;;;;2.00;2.00;;;;;20.79;59.12;101286.28;5038332;28;45832;-69
2023/08/13 04:54:54;;;;;;;;;2.67;2.33;;;;;20.82;59.26;101294.84;5020136;28;45239;-69
2023/08/13 04:57:20;;;;;;;;;6.00;3.00;;;;;20.84;59.23;101292.78;5038423;28;45779;-70
2023/08/13 04:59:45;;;;;;;;;4.00;1.00;;;;;20.91;58.99;101299.06;5019779;28;45268;-71
2023/08/13 05:02:10;;;;;;;;;2.67;2.00;;;;;20.87;58.96;101286.97;5038182;28;45312;-69
2023/08/13 05:04:36;;;;;;;;;2.00;2.00;;;;;20.95;58.89;101300.31;5037872;28;45922;-69
2023/08/13 05:07:02;;;;;;;;;2.67;2.67;;;;;21.00;58.84;101296.19;5019753;28;47890;-68
2023/08/13 05:09:28;;;;;;;;;2.00;1.33;;;;;21.01;58.80;101292.44;5037755;28;45493;-69
2023/08/13 05:11:53;;;;;;;;;3.00;3.00;;;;;21.07;58.28;101297.91;5037956;28;45590;-69
2023/08/13 05:14:18;;;;;;;;;7.00;3.00;;;;;21.03;58.30;101291.25;5037713;28;45420;-71
2023/08/13 05:16:44;;;;;;;;;3.33;2.67;;;;;21.04;58.35;101284.81;5037765;28;46667;-69
2023/08/13 05:19:09;;;;;;;;;4.00;3.00;;;;;21.06;58.47;101296.25;5037652;28;45417;-70
2023/08/13 05:21:34;;;;;;;;;3.33;3.33;;;;;21.00;58.34;101274.56;5019547;28;45399;-69
2023/08/13 05:24:00;;;;;;;;;4.00;3.00;;;;;21.08;58.27;101293.34;5019907;28;45590;-69
2023/08/13 05:26:25;;;;;;;;;1.00;1.00;;;;;21.17;58.38;101294.84;5037507;28;49932;-70
2023/08/13 05:28:50;;;;;;;;;6.33;1.67;;;;;21.21;58.35;101305.03;5037260;28;45873;-69
2023/08/13 05:31:16;;;;;;;;;2.00;2.00;;;;;21.24;58.33;101291.19;5037456;28;45395;-69
2023/08/13 05:33:41;;;;;;;;;1.00;1.00;;;;;21.19;58.18;101290.06;5019626;28;45671;-70
2023/08/13 05:36:07;;;;;;;;;3.50;2.25;;;;;21.28;58.04;101297.00;5019367;28;47381;-69
2023/08/13 05:38:32;;;;;;;;;2.67;2.00;;;;;21.22;58.09;101284.25;5037186;28;45480;-70
2023/08/13 05:40:58;;;;;;;;;1.75;1.75;;;;;21.30;58.10;101300.34;5019667;28;45363;-69
2023/08/13 05:43:23;;;;;;;;;3.67;3.33;;;;;21.14;58.01;101281.72;5037796;28;45211;-68
2023/08/13 05:45:49;;;;;;;;;4.00;2.75;;;;;21.31;58.04;101307.44;5036915;28;45910;-72
2023/08/13 05:48:14;;;;;;;;;3.33;2.67;;;;;21.35;58.15;101305.97;5019197;28;46170;-69
2023/08/13 05:50:40;;;;;;;;;2.50;1.75;;;;;21.21;58.30;101288.81;5037396;28;45289;-70
2023/08/13 05:53:05;;;;;;;;;3.50;3.00;;;;;21.16;58.17;101285.88;5037168;28;45443;-70
2023/08/13 05:55:31;;;;;;;;;3.67;1.33;;;;;21.23;58.20;101308.41;5019070;28;48608;-70
2023/08/13 05:57:56;;;;;;;;;2.00;1.33;;;;;21.28;58.41;101313.25;5037257;28;45585;-70
2023/08/13 06:00:22;;;;;;;;;1.33;1.33;;;;;20.97;58.22;101256.88;5036987;28;45495;-70
2023/08/13 06:02:47;;;;;;;;;6.00;3.50;;;;;21.30;58.52;101305.75;5037315;28;45493;-68
2023/08/13 06:05:12;;;;;;;;;5.00;3.00;;;;;21.25;58.61;101302.84;5037021;28;46634;-69
2023/08/13 06:07:38;;;;;;;;;2.00;2.00;;;;;21.00;58.34;101248.38;5036783;28;45561;-69
2023/08/13 06:10:04;;;;;;;;;3.00;2.00;;;;;21.37;58.33;101309.31;5037255;28;45398;-68
2023/08/13 06:12:30;;;;;;;;;3.33;2.33;;;;;21.52;58.11;101320.84;5037244;28;45269;-69
2023/08/13 06:14:56;;;;;;;;;1.25;1.25;;;;;21.44;57.76;101304.78;5036792;28;46529;-69
2023/08/13 06:17:21;;;;;;;;;3.33;1.00;;;;;21.44;57.94;101304.78;5036741;28;45348;-69
2023/08/13 06:19:47;;;;;;;;;3.25;2.00;;;;;21.61;57.58;101324.19;5037024;28;45256;-70
2023/08/13 06:22:13;;;;;;;;;6.33;2.00;;;;;21.63;57.59;101322.16;5037147;28;45498;-69
2023/08/13 06:24:39;;;;;;;;;5.00;2.00;;;;;21.70;57.36;101324.88;5036717;28;45662;-70
2023/08/13 06:27:04;;;;;;;;;4.67;3.00;;;;;21.71;57.21;101313.00;5036472;28;45611;-69
2023/08/13 06:29:30;;;;;;;;;2.67;2.33;;;;;21.86;57.28;101319.09;5036497;28;45196;-69
2023/08/13 06:31:55;;;;;;;;;3.25;2.75;;;;;21.93;56.89;101325.34;5036808;28;45464;-69
2023/08/13 06:34:21;;;;;;;;;1.50;1.50;;;;;21.92;56.67;101317.44;5018512;28;47691;-69
2023/08/13 06:36:46;;;;;;;;;3.00;2.00;;;;;22.00;56.30;101323.47;5036613;28;45244;-69
2023/08/13 06:39:11;;;;;;;;;2.75;2.75;;;;;21.81;56.59;101286.38;5018352;28;50746;-70
2023/08/13 06:41:37;;;;;;;;;2.00;2.00;;;;;21.71;56.63;101275.13;5018909;28;45511;-69
2023/08/13 06:44:03;;;;;;;;;3.00;3.00;;;;;21.74;56.39;101277.41;5036426;28;45255;-69
2023/08/13 06:46:29;;;;;;;;;7.00;3.00;;;;;21.98;56.14;101309.31;5036338;28;45515;-70
2023/08/13 06:48:54;;;;;;;;;3.00;1.50;;;;;21.72;56.13;101265.94;5036395;28;45529;-71
2023/08/13 06:51:19;;;;;;;;;2.00;2.00;;;;;22.08;56.34;101306.25;5018856;28;45596;-68
2023/08/13 06:53:45;;;;;;;;;5.00;1.00;;;;;22.24;55.74;101327.53;5018196;28;48303;-70
2023/08/13 06:56:10;;;;;;;;;2.25;2.00;;;;;22.32;55.67;101326.50;5018439;28;45418;-69
2023/08/13 06:58:36;;;;;;;;;4.50;3.00;;;;;22.34;55.01;101324.41;5018789;28;45414;-69
2023/08/13 07:01:03;;;;;;;;;1.25;1.25;;;;;22.35;55.17;101326.06;5018354;28;45658;-70
2023/08/13 07:03:28;;;;;;;;;2.00;2.00;;;;;22.50;54.87;101324.00;5018581;28;47643;-68
2023/08/13 07:05:54;;;;;;;;;6.67;6.67;;;;;22.64;55.08;101331.09;5039698;28;45511;-69
2023/08/13 07:08:19;;;;;;;;;2.00;2.00;;;;;22.74;54.57;101331.50;5039869;28;45202;-69
2023/08/13 07:10:45;;;;;;;;;3.00;3.00;;;;;21.96;54.15;101181.44;5040123;28;45283;-77
2023/08/13 07:13:10;;;;;;;;;0.75;0.75;;;;;22.90;53.43;101322.13;5039458;28;46546;-69
2023/08/13 07:15:36;;;;;;;;;1.75;1.25;;;;;22.97;53.08;101313.97;5039096;28;48276;-70
2023/08/13 07:18:01;;;;;;;;;2.50;2.50;;;;;23.16;52.85;101332.09;5039765;28;45285;-69
2023/08/13 07:20:27;;;;;;;;;2.67;1.00;;;;;23.48;52.48;101330.31;5039733;28;45212;-69
2023/08/13 07:22:52;;;;;;;;;3.33;2.67;;;;;23.82;50.91;101321.00;5021176;28;47427;-69
2023/08/13 07:25:19;;;;;;;;;5.33;3.67;;;;;24.36;50.46;101318.78;5039290;28;45312;-70
2023/08/13 07:27:44;;;;;;;;;1.00;1.00;;;;;24.74;48.81;101315.97;5021354;28;45578;-68
2023/08/13 07:30:11;;;;;;;;;1.00;1.00;;;;;25.30;47.60;101324.00;5039056;28;45485;-69
2023/08/13 07:32:37;;;;;;;;;3.00;0.50;;;;;25.62;47.10;101321.91;5038915;28;47215;-70
2023/08/13 07:35:04;;;;;;;;;1.00;1.00;;;;;25.75;45.87;101318.22;5039077;28;45521;-69
2023/08/13 07:37:29;;;;;;;;;3.00;2.00;;;;;25.66;45.98;101271.38;5038891;28;45541;-69
2023/08/13 07:39:55;;;;;;;;;1.50;1.50;;;;;25.98;44.70;101269.25;5021114;28;45495;-70
2023/08/13 07:42:21;;;;;;;;;1.00;1.00;;;;;26.71;44.73;101324.53;5038882;28;45902;-70
2023/08/13 07:44:47;;;;;;;;;1.50;1.00;;;;;27.09;44.14;101321.34;5038655;28;45276;-68
2023/08/13 07:47:13;;;;;;;;;0.00;0.00;;;;;27.32;43.26;101318.56;5038976;28;45356;-70
2023/08/13 07:49:38;;;;;;;;;1.75;1.75;;;;;27.57;42.31;101326.44;5038921;28;45567;-70
2023/08/13 07:52:04;;;;;;;;;0.75;0.00;;;;;28.04;41.33;101318.94;5038736;28;47403;-71
2023/08/13 07:54:29;;;;;;;;;1.00;1.00;;;;;28.26;40.79;101310.03;5038528;28;45454;-69
2023/08/13 07:56:55;;;;;;;;;0.00;0.00;;;;;28.50;40.42;101311.53;5038902;28;45459;-69
2023/08/13 07:59:21;;;;;;;;;1.00;1.00;;;;;28.60;39.26;101322.63;5038729;28;45538;-70
2023/08/13 08:01:46;;;;;;;;;1.00;1.00;;;;;28.44;39.07;101312.53;5038096;28;46006;-70
2023/08/13 08:04:12;;;;;;;;;0.75;0.75;;;;;28.55;39.23;101314.34;5020352;28;45309;-70
2023/08/13 08:06:37;;;;;;;;;0.00;0.00;;;;;28.44;39.03;101318.84;5020103;28;45455;-69
2023/08/13 08:09:05;;;;;;;;;1.00;1.00;;;;;28.49;39.19;101318.06;5038387;28;45283;-70
2023/08/13 08:11:30;;;;;;;;;2.00;0.25;;;;;28.11;38.01;101245.78;5038250;28;45840;-70
2023/08/13 08:13:56;;;;;;;;;1.00;1.00;;;;;28.53;37.85;101311.03;5038207;28;45450;-70
2023/08/13 08:16:21;;;;;;;;;1.50;1.00;;;;;28.47;38.69;101323.81;5038098;28;45604;-69
2023/08/13 08:18:46;;;;;;;;;0.25;0.25;;;;;28.24;38.39;101307.53;5038648;28;45633;-70
2023/08/13 08:21:12;;;;;;;;;1.50;1.00;;;;;28.21;38.32;101313.47;5038067;28;46986;-70
2023/08/13 08:23:38;;;;;;;;;1.00;1.00;;;;;28.24;38.92;101318.47;5037975;28;45353;-69
2023/08/13 08:26:03;;;;;;;;;0.00;0.00;;;;;28.42;38.95;101315.50;5038210;28;45590;-70
2023/08/13 08:28:28;;;;;;;;;1.50;1.50;;;;;28.59;38.58;101315.50;5020358;28;45472;-69
2023/08/13 08:30:54;;;;;;;;;1.00;1.00;;;;;28.68;38.03;101319.47;5019759;28;46107;-69
2023/08/13 08:33:21;;;;;;;;;2.00;1.00;;;;;28.48;37.75;101257.06;5037842;28;45335;-69
2023/08/13 08:35:46;;;;;;;;;1.00;1.00;;;;;28.77;37.94;101307.00;5037855;28;45353;-69
2023/08/13 08:38:12;;;;;;;;;2.75;0.00;;;;;28.76;37.62;101304.53;5038308;28;45538;-71
2023/08/13 08:40:38;;;;;;;;;1.00;1.00;;;;;28.77;37.77;101312.50;5037988;28;45627;-70
2023/08/13 08:43:03;;;;;;;;;1.00;1.00;;;;;28.68;39.58;101313.19;5037999;28;45475;-70
2023/08/13 08:45:29;;;;;;;;;1.00;1.00;;;;;28.60;38.78;101306.19;5037766;28;45458;-69
2023/08/13 08:47:56;;;;;;;;;1.25;0.75;;;;;28.60;39.02;101291.69;5038181;28;45303;-72
2023/08/13 08:50:21;;;;;;;;;1.00;1.00;;;;;28.51;38.52;101291.31;5037678;28;45844;-69
2023/08/13 08:52:47;;;;;;;;;0.25;0.25;;;;;28.45;38.98;101301.34;5037955;28;45489;-70
2023/08/13 08:55:13;;;;;;;;;2.00;2.00;;;;;28.26;38.84;101288.16;5037905;28;45266;-69
2023/08/13 08:57:39;;;;;;;;;0.25;0.25;;;;;28.10;38.54;101296.06;5037948;28;45482;-70
2023/08/13 09:00:06;;;;;;;;;0.25;0.25;;;;;27.85;38.66;101292.88;5037271;28;45724;-69
2023/08/13 09:02:31;;;;;;;;;1.50;1.00;;;;;27.56;38.78;101295.56;5018232;28;45510;-68
2023/08/13 09:04:58;;;;;;;;;0.00;0.00;;;;;27.32;38.70;101283.06;5037320;28;45494;-69
2023/08/13 09:07:33;;;;;;;;;1.00;0.00;;;;;27.02;39.42;101241.47;5037662;28;45598;-69
2023/08/13 09:10:02;;;;;;;;;1.00;0.00;;;;;27.36;39.65;101306.09;5037373;28;46322;-69
2023/08/13 09:12:33;;;;;;;;;1.00;1.00;;;;;27.11;39.60;101270.06;5037428;28;45276;-69
2023/08/13 09:15:03;;;;;;;;;0.00;0.00;;;;;27.25;39.55;101304.22;5019142;28;45221;-68
2023/08/13 09:17:29;;;;;;;;;0.00;0.00;;;;;27.21;39.27;101292.94;5037717;28;45419;-69
2023/08/13 09:19:56;;;;;;;;;1.00;0.00;;;;;27.35;38.82;101298.97;5037191;28;46641;-69
2023/08/13 09:22:21;;;;;;;;;1.00;0.00;;;;;27.38;38.77;101309.41;5037283;28;45367;-69
2023/08/13 09:24:48;;;;;;;;;0.00;0.00;;;;;27.55;38.92;101310.31;5037462;28;45310;-69
2023/08/13 09:27:14;;;;;;;;;0.00;0.00;;;;;27.55;38.38;101283.00;5016567;28;45350;-69
2023/08/13 09:29:40;;;;;;;;;0.00;0.00;;;;;27.85;37.89;101299.19;5017094;28;45654;-69
2023/08/13 09:32:06;;;;;;;;;0.00;0.00;;;;;28.37;38.29;101304.47;5017264;28;45599;-69
2023/08/13 09:34:35;;;;;;;;;0.00;0.00;;;;;28.62;37.50;101260.25;5017354;28;45308;-68
2023/08/13 09:37:00;;;;;;;;;0.75;0.00;;;;;29.47;35.86;101300.06;5017420;28;45480;-69
2023/08/13 09:39:28;;;;;;;;;0.00;0.00;;;;;29.91;35.20;101289.84;5017101;28;47677;-69
2023/08/13 09:41:54;;;;;;;;;1.00;1.00;;;;;30.26;34.59;101294.06;5017194;28;45403;-70
2023/08/13 09:44:24;;;;;;;;;0.25;0.25;;;;;30.58;33.91;101283.84;5016684;28;45486;-71
2023/08/13 09:46:53;;;;;;;;;0.00;0.00;;;;;30.73;33.42;101282.34;5016967;28;45443;-69
2023/08/13 09:49:23;;;;;;;;;0.00;0.00;;;;;30.77;33.18;101269.72;5016823;28;46557;-69
2023/08/13 09:51:51;;;;;;;;;1.00;0.00;;;;;30.91;33.20;101273.66;5016794;28;45329;-68
2023/08/13 09:54:50;;;;;;;;;1.00;0.00;;;;;30.86;32.41;101273.63;4998924;28;45568;-68
2023/08/13 09:57:17;;;;;;;;;0.50;0.50;;;;;30.78;32.26;101274.13;5011911;28;45462;-69
2023/08/13 09:59:44;;;;;;;;;1.00;1.00;;;;;30.70;33.01;101264.47;4997815;28;46523;-70
2023/08/13 10:02:14;;;;;;;;;0.00;0.00;;;;;30.54;32.65;101277.25;5017030;28;45509;-70
2023/08/13 10:04:40;;;;;;;;;0.00;0.00;;;;;30.30;32.88;101250.47;5016786;28;45212;-69
2023/08/13 10:07:06;;;;;;;;;0.00;0.00;;;;;30.27;32.68;101260.03;5016514;28;45971;-71
2023/08/13 10:09:35;;;;;;;;;0.00;0.00;;;;;30.12;32.75;101251.69;5016259;28;47405;-69
2023/08/13 10:12:02;;;;;;;;;0.50;0.50;;;;;30.07;33.43;101254.41;5016750;28;45452;-69
2023/08/13 10:14:28;;;;;;;;;1.50;1.50;;;;;29.87;33.54;101239.38;5016067;28;45510;-69
2023/08/13 10:16:54;;;;;;;;;2.25;0.00;;;;;29.93;33.26;101279.47;5014768;28;45501;-74
2023/08/13 10:19:27;;;;;;;;;0.25;0.25;;;;;29.63;33.86;101277.25;5013962;28;45530;-68
2023/08/13 10:21:56;;;;;;;;;2.00;0.00;;;;;29.60;34.65;101276.91;5015601;28;45639;-70
2023/08/13 10:24:22;;;;;;;;;0.00;0.00;;;;;29.38;35.12;101283.22;5014387;28;45392;-69
2023/08/13 10:26:47;;;;;;;;;1.00;1.00;;;;;29.10;35.11;101272.47;5015177;28;45731;-69
2023/08/13 10:29:20;;;;;;;;;1.50;0.25;;;;;28.84;35.43;101281.41;5015764;28;45664;-70
2023/08/13 10:31:59;;;;;;;;;1.00;1.00;;;;;28.65;35.76;101281.69;5016352;28;45361;-70
2023/08/13 10:34:39;;;;;;;;;0.50;0.00;;;;;28.39;36.36;101282.34;5015964;28;45482;-69
2023/08/13 10:37:22;;;;;;;;;0.00;0.00;;;;;28.47;36.36;101285.50;5016893;28;45495;-68
2023/08/13 10:40:08;;;;;;;;;1.00;1.00;;;;;28.27;36.84;101273.41;5033838;28;46125;-69
2023/08/13 10:42:34;;;;;;;;;0.50;0.50;;;;;28.16;37.15;101277.84;5019763;28;45370;-69
2023/08/13 10:45:04;;;;;;;;;2.00;2.00;;;;;27.81;37.08;101243.34;5019220;28;45337;-70
2023/08/13 10:47:39;;;;;;;;;2.25;1.00;;;;;27.73;37.65;101271.06;5018358;28;45709;-69
2023/08/13 10:50:06;;;;;;;;;1.25;1.00;;;;;27.83;38.16;101273.16;5019134;28;46932;-70
2023/08/13 10:52:32;;;;;;;;;0.50;0.50;;;;;27.93;37.97;101261.59;5019205;28;45710;-70
2023/08/13 10:54:57;;;;;;;;;2.33;1.00;;;;;27.94;37.52;101261.34;5019092;28;45695;-69
2023/08/13 10:57:28;;;;;;;;;2.50;2.00;;;;;27.80;37.37;101251.78;5019042;28;45411;-69
2023/08/13 10:59:55;;;;;;;;;4.00;1.00;;;;;27.48;38.21;101222.22;5018517;28;45741;-69
2023/08/13 11:02:21;;;;;;;;;2.00;0.50;;;;;27.57;38.49;101247.22;5019298;28;45357;-70
2023/08/13 11:04:47;;;;;;;;;1.67;1.00;;;;;27.20;38.22;101192.16;5019702;28;45341;-70
2023/08/13 11:07:14;;;;;;;;;1.00;1.00;;;;;27.40;38.38;101249.91;5019602;28;45517;-69
2023/08/13 11:09:42;;;;;;;;;1.00;1.00;;;;;27.33;38.32;101232.84;5018867;28;46067;-69
2023/08/13 11:12:09;;;;;;;;;1.25;1.25;;;;;27.28;38.25;101249.97;5019283;28;45511;-69
2023/08/13 11:14:35;;;;;;;;;1.67;1.33;;;;;27.13;39.21;101240.63;4998062;28;45337;-69
2023/08/13 11:17:01;;;;;;;;;2.67;2.00;;;;;27.10;39.27;101241.13;4999827;28;45316;-70
2023/08/13 11:19:26;;;;;;;;;3.00;1.00;;;;;27.03;38.74;101226.75;4999432;28;46533;-69
2023/08/13 11:21:52;;;;;;;;;2.25;1.00;;;;;26.95;38.81;101245.13;4999398;28;45448;-69